<?xml version="1.0" encoding="UTF-8"?><gpx creator="Wikiloc - http://www.wikiloc.com" version="1.1" xmlns="http://www.topografix.com/GPX/1/1" xmlns:xsi="http://www.w3.org/2001/XMLSchema-instance" xsi:schemaLocation="http://www.topografix.com/GPX/1/1 http://www.topografix.com/GPX/1/1/gpx.xsd"><trk><name>R1- La Creueta</name><cmt></cmt><desc></desc><trkseg><trkpt lat="42.135889" lon="1.592245"><ele>899.0</ele><time>2016-11-29T18:00:14Z</time></trkpt><trkpt lat="42.136486" lon="1.591462"><ele>913.0</ele><time>2016-11-29T18:00:24Z</time></trkpt><trkpt lat="42.137154" lon="1.590657"><ele>922.0</ele><time>2016-11-29T18:00:34Z</time></trkpt><trkpt lat="42.137497" lon="1.590711"><ele>920.0</ele><time>2016-11-29T18:00:44Z</time></trkpt><trkpt lat="42.137855" lon="1.590689"><ele>919.0</ele><time>2016-11-29T18:00:54Z</time></trkpt><trkpt lat="42.138109" lon="1.590507"><ele>916.0</ele><time>2016-11-29T18:01:04Z</time></trkpt><trkpt lat="42.138061" lon="1.590421"><ele>916.0</ele><time>2016-11-29T18:01:14Z</time></trkpt><trkpt lat="42.137934" lon="1.590185"><ele>918.0</ele><time>2016-11-29T18:01:24Z</time></trkpt><trkpt lat="42.137393" lon="1.589370"><ele>928.0</ele><time>2016-11-29T18:01:34Z</time></trkpt><trkpt lat="42.137075" lon="1.588801"><ele>927.0</ele><time>2016-11-29T18:01:44Z</time></trkpt><trkpt lat="42.136717" lon="1.588415"><ele>927.0</ele><time>2016-11-29T18:01:54Z</time></trkpt><trkpt lat="42.136494" lon="1.588233"><ele>926.0</ele><time>2016-11-29T18:02:04Z</time></trkpt><trkpt lat="42.136391" lon="1.587996"><ele>927.0</ele><time>2016-11-29T18:02:14Z</time></trkpt><trkpt lat="42.136375" lon="1.587846"><ele>930.0</ele><time>2016-11-29T18:02:24Z</time></trkpt><trkpt lat="42.136399" lon="1.587696"><ele>930.0</ele><time>2016-11-29T18:02:34Z</time></trkpt><trkpt lat="42.136478" lon="1.587492"><ele>931.0</ele><time>2016-11-29T18:02:44Z</time></trkpt><trkpt lat="42.136446" lon="1.587363"><ele>931.0</ele><time>2016-11-29T18:02:54Z</time></trkpt><trkpt lat="42.136510" lon="1.587256"><ele>933.0</ele><time>2016-11-29T18:03:04Z</time></trkpt><trkpt lat="42.136598" lon="1.587068"><ele>936.0</ele><time>2016-11-29T18:03:14Z</time></trkpt><trkpt lat="42.136872" lon="1.586017"><ele>944.0</ele><time>2016-11-29T18:03:24Z</time></trkpt><trkpt lat="42.136824" lon="1.585920"><ele>947.0</ele><time>2016-11-29T18:03:34Z</time></trkpt><trkpt lat="42.135559" lon="1.585454"><ele>945.0</ele><time>2016-11-29T18:03:44Z</time></trkpt><trkpt lat="42.135500" lon="1.585368"><ele>947.0</ele><time>2016-11-29T18:03:54Z</time></trkpt><trkpt lat="42.135774" lon="1.584499"><ele>954.0</ele><time>2016-11-29T18:04:04Z</time></trkpt><trkpt lat="42.135742" lon="1.584429"><ele>954.0</ele><time>2016-11-29T18:04:14Z</time></trkpt><trkpt lat="42.135142" lon="1.584027"><ele>955.0</ele><time>2016-11-29T18:04:24Z</time></trkpt><trkpt lat="42.134728" lon="1.583619"><ele>954.0</ele><time>2016-11-29T18:04:34Z</time></trkpt><trkpt lat="42.134613" lon="1.583458"><ele>955.0</ele><time>2016-11-29T18:04:44Z</time></trkpt><trkpt lat="42.134529" lon="1.583185"><ele>954.0</ele><time>2016-11-29T18:04:54Z</time></trkpt><trkpt lat="42.134434" lon="1.583083"><ele>954.0</ele><time>2016-11-29T18:05:04Z</time></trkpt><trkpt lat="42.134231" lon="1.583002"><ele>952.0</ele><time>2016-11-29T18:05:14Z</time></trkpt><trkpt lat="42.134024" lon="1.582900"><ele>954.0</ele><time>2016-11-29T18:05:24Z</time></trkpt><trkpt lat="42.133912" lon="1.582788"><ele>954.0</ele><time>2016-11-29T18:05:34Z</time></trkpt><trkpt lat="42.133845" lon="1.582589"><ele>956.0</ele><time>2016-11-29T18:05:44Z</time></trkpt><trkpt lat="42.133801" lon="1.582364"><ele>956.0</ele><time>2016-11-29T18:05:54Z</time></trkpt><trkpt lat="42.133729" lon="1.582305"><ele>959.0</ele><time>2016-11-29T18:06:04Z</time></trkpt><trkpt lat="42.133650" lon="1.582342"><ele>959.0</ele><time>2016-11-29T18:06:14Z</time></trkpt><trkpt lat="42.133594" lon="1.582476"><ele>958.0</ele><time>2016-11-29T18:06:24Z</time></trkpt><trkpt lat="42.133614" lon="1.582916"><ele>956.0</ele><time>2016-11-29T18:06:34Z</time></trkpt><trkpt lat="42.133666" lon="1.583244"><ele>952.0</ele><time>2016-11-29T18:06:44Z</time></trkpt><trkpt lat="42.133741" lon="1.583646"><ele>950.0</ele><time>2016-11-29T18:06:54Z</time></trkpt><trkpt lat="42.133721" lon="1.584021"><ele>948.0</ele><time>2016-11-29T18:07:04Z</time></trkpt><trkpt lat="42.133554" lon="1.584429"><ele>944.0</ele><time>2016-11-29T18:07:14Z</time></trkpt><trkpt lat="42.133272" lon="1.584907"><ele>941.0</ele><time>2016-11-29T18:07:24Z</time></trkpt><trkpt lat="42.133057" lon="1.585175"><ele>941.0</ele><time>2016-11-29T18:07:34Z</time></trkpt><trkpt lat="42.132735" lon="1.585802"><ele>941.0</ele><time>2016-11-29T18:07:44Z</time></trkpt><trkpt lat="42.132600" lon="1.585969"><ele>944.0</ele><time>2016-11-29T18:07:54Z</time></trkpt><trkpt lat="42.132584" lon="1.586049"><ele>943.0</ele><time>2016-11-29T18:08:04Z</time></trkpt><trkpt lat="42.132568" lon="1.586532"><ele>939.0</ele><time>2016-11-29T18:08:14Z</time></trkpt><trkpt lat="42.132635" lon="1.586800"><ele>939.0</ele><time>2016-11-29T18:08:24Z</time></trkpt><trkpt lat="42.132675" lon="1.587197"><ele>930.0</ele><time>2016-11-29T18:08:34Z</time></trkpt><trkpt lat="42.132635" lon="1.587782"><ele>930.0</ele><time>2016-11-29T18:08:44Z</time></trkpt><trkpt lat="42.132588" lon="1.588452"><ele>923.0</ele><time>2016-11-29T18:08:54Z</time></trkpt><trkpt lat="42.132512" lon="1.588930"><ele>916.0</ele><time>2016-11-29T18:09:04Z</time></trkpt><trkpt lat="42.132425" lon="1.589327"><ele>909.0</ele><time>2016-11-29T18:09:14Z</time></trkpt><trkpt lat="42.132253" lon="1.589831"><ele>908.0</ele><time>2016-11-29T18:09:24Z</time></trkpt><trkpt lat="42.132122" lon="1.590368"><ele>901.0</ele><time>2016-11-29T18:09:34Z</time></trkpt><trkpt lat="42.131991" lon="1.590931"><ele>897.0</ele><time>2016-11-29T18:09:44Z</time></trkpt><trkpt lat="42.131876" lon="1.591381"><ele>892.0</ele><time>2016-11-29T18:09:54Z</time></trkpt><trkpt lat="42.131880" lon="1.591532"><ele>890.0</ele><time>2016-11-29T18:10:04Z</time></trkpt><trkpt lat="42.132206" lon="1.591301"><ele>891.0</ele><time>2016-11-29T18:10:14Z</time></trkpt><trkpt lat="42.132460" lon="1.591081"><ele>892.0</ele><time>2016-11-29T18:10:24Z</time></trkpt><trkpt lat="42.132699" lon="1.590909"><ele>894.0</ele><time>2016-11-29T18:10:34Z</time></trkpt><trkpt lat="42.132934" lon="1.590813"><ele>893.0</ele><time>2016-11-29T18:10:44Z</time></trkpt><trkpt lat="42.133252" lon="1.590625"><ele>894.0</ele><time>2016-11-29T18:10:54Z</time></trkpt><trkpt lat="42.133511" lon="1.590453"><ele>896.0</ele><time>2016-11-29T18:11:04Z</time></trkpt><trkpt lat="42.133777" lon="1.590486"><ele>898.0</ele><time>2016-11-29T18:11:14Z</time></trkpt><trkpt lat="42.134004" lon="1.590582"><ele>898.0</ele><time>2016-11-29T18:11:24Z</time></trkpt><trkpt lat="42.134207" lon="1.590647"><ele>900.0</ele><time>2016-11-29T18:11:34Z</time></trkpt><trkpt lat="42.134628" lon="1.590748"><ele>903.0</ele><time>2016-11-29T18:11:44Z</time></trkpt><trkpt lat="42.135177" lon="1.591022"><ele>904.0</ele><time>2016-11-29T18:11:54Z</time></trkpt><trkpt lat="42.135436" lon="1.591060"><ele>906.0</ele><time>2016-11-29T18:12:04Z</time></trkpt><trkpt lat="42.135639" lon="1.591140"><ele>906.0</ele><time>2016-11-29T18:12:14Z</time></trkpt><trkpt lat="42.135830" lon="1.591285"><ele>907.0</ele><time>2016-11-29T18:12:24Z</time></trkpt><trkpt lat="42.135973" lon="1.591446"><ele>909.0</ele><time>2016-11-29T18:12:34Z</time></trkpt><trkpt lat="42.135973" lon="1.591537"><ele>907.0</ele><time>2016-11-29T18:12:44Z</time></trkpt><trkpt lat="42.135901" lon="1.591687"><ele>904.0</ele><time>2016-11-29T18:12:54Z</time></trkpt><trkpt lat="42.135878" lon="1.591886"><ele>902.0</ele><time>2016-11-29T18:13:04Z</time></trkpt><trkpt lat="42.135872" lon="1.592083"><ele>902.0</ele><time>2016-11-29T18:13:14Z</time></trkpt><trkpt lat="42.135884" lon="1.592173"><ele>899.0</ele><time>2016-11-29T18:13:24Z</time></trkpt><trkpt lat="42.135888" lon="1.592237"><ele>899.0</ele><time>2016-11-29T18:13:34Z</time></trkpt></trkseg></trk></gpx>